Aeroporto :
LOGIN :

Iscrizione | Disclaimer

   EN    FR    IT 

 










Sommario :    VFR   VFR Marginale   IFR   IFR Intensivo   IFR Molto Intensivo
Visibilità : 
Base nubi : 
>= 8 km
>= 3000ft
5 / 8 km
1000 / 3000 ft
1500m / 5 km
500 / 1000 ft
800 / 1500m
200 / 500 ft
< 800m
< 200 ft
Simboli :   Temporali  Nebbia  Neve Forte  Precipitazioni Forti  Vento > 20 kt
SIGMETs :   Varie  Temporali  Ghiacco  Turbolenza  Onda orograficha  Ceneri Vulcaniche






- Altitudine del aeroporto : 388 ft
- Codice IATA : QYR


LFQB - Troyes Barberey

ULTIMO METAR :
  • 131730Z AUTO 04008KT CAVOK 26/11 Q1023

METARs OBSOLETI :
  • 131700Z AUTO 04009KT CAVOK 26/11 Q1023
  • 131630Z AUTO 03009KT 340V080 CAVOK 26/12 Q1023
  • 131600Z AUTO 05007KT 010V080 CAVOK 26/12 Q1024
  • 131530Z AUTO 04008KT 010V080 CAVOK 26/11 Q1024
  • 131500Z AUTO 05007KT 020V100 CAVOK 26/11 Q1024
  • 131430Z AUTO 04007KT 360V070 CAVOK 25/12 Q1024

TAF N/A



MetMap, La meteo Aeronautica in un colpo d'occhio ! - Copyright ORBIFLY Dicembre 2007 - Disclaimer

ORBIFLY MET'MAP TEAM :

Programmazione e sviluppo : Alexandra Zaïnal
Concezione : Baudouin d'Aumeries
Aiuto per la programmazione : Marc-Olivier Méhu
Supporto tecnico e logistico : Manuel Goepfert
Aiuto per la traduzione : Arnaldo La Scala

Contatto : metmap@orbifly.com




FONTI E CREDITI :

   NOAA